Time;durP1;ratioP1;P1;durP2;ratioP2;P2;SDS_P1;SDS_P2;PMS_P1;PMS_P2;Temp;Humidity;BMP_temperature;BMP_pressure;BME280_temperature;BME280_humidity;BME280_pressure;Samples;Min_cycle;Max_cycle;Signal;HPM_P1;HPM_P2
2022/03/07 01:33:53;;;;;;;10.60;8.40;;;;;;;0.99;45.87;97097.91;5196738;23;20074;-85
2022/03/07 01:36:23;;;;;;;12.18;9.13;;;;;;;1.01;45.46;97103.75;4981742;28;20103;-85
2022/03/07 01:38:52;;;;;;;13.18;8.15;;;;;;;0.98;45.53;97098.81;4981748;28;20035;-84
2022/03/07 01:41:21;;;;;;;12.25;9.73;;;;;;;0.97;45.53;97089.50;4982088;28;20063;-85
2022/03/07 01:43:49;;;;;;;11.88;8.70;;;;;;;1.01;45.61;97098.63;4982196;28;20031;-86
2022/03/07 01:46:18;;;;;;;12.45;8.93;;;;;;;1.03;45.39;97095.00;4981878;28;20032;-85
2022/03/07 01:48:46;;;;;;;13.27;9.13;;;;;;;1.02;45.35;97085.66;4982475;28;20062;-85
2022/03/07 01:51:17;;;;;;;10.25;8.23;;;;;;;1.03;45.53;97086.50;4981974;28;20098;-84
2022/03/07 01:53:46;;;;;;;10.25;9.15;;;;;;;1.05;45.50;97083.78;4982100;28;20035;-87
2022/03/07 01:56:14;;;;;;;11.35;8.52;;;;;;;1.14;45.71;97081.38;4981758;28;20042;-85
2022/03/07 01:58:43;;;;;;;10.80;8.73;;;;;;;1.28;45.85;97077.81;4981589;28;20054;-85
2022/03/07 02:01:11;;;;;;;11.25;8.60;;;;;;;1.36;45.34;97074.69;4981644;28;20103;-86
2022/03/07 02:03:39;;;;;;;11.27;8.85;;;;;;;1.36;44.53;97069.56;4981662;28;20032;-86
2022/03/07 02:06:07;;;;;;;11.98;9.15;;;;;;;1.32;44.78;97071.50;4981217;28;20059;-87
2022/03/07 02:08:37;;;;;;;13.93;9.43;;;;;;;1.29;45.15;97068.34;4981328;28;20039;-85
2022/03/07 02:11:07;;;;;;;10.90;8.45;;;;;;;1.33;45.54;97062.03;4981646;28;20038;-86
2022/03/07 02:13:35;;;;;;;11.10;7.95;;;;;;;1.41;45.62;97057.97;4981278;28;20058;-84
2022/03/07 02:16:04;;;;;;;11.25;9.27;;;;;;;1.50;45.43;97055.66;4981051;28;20047;-86
2022/03/07 02:18:36;;;;;;;12.65;10.00;;;;;;;1.52;44.71;97058.94;4981178;28;20205;-85
2022/03/07 02:21:09;;;;;;;11.18;8.45;;;;;;;1.49;45.54;97056.59;4981129;28;20343;-84
2022/03/07 02:23:39;;;;;;;12.07;9.85;;;;;;;1.53;45.29;97060.56;4981345;28;20119;-86
2022/03/07 02:26:12;;;;;;;12.38;10.27;;;;;;;1.46;44.89;97061.97;4980890;28;20075;-85
2022/03/07 02:28:42;;;;;;;12.35;9.57;;;;;;;1.35;45.14;97052.47;4981400;28;20038;-84
2022/03/07 02:31:12;;;;;;;11.77;9.02;;;;;;;1.30;45.21;97062.28;4981107;28;20173;-85
2022/03/07 02:33:41;;;;;;;11.23;8.95;;;;;;;1.23;44.92;97057.59;4980938;28;20091;-87
2022/03/07 02:36:09;;;;;;;13.85;9.98;;;;;;;1.12;45.25;97054.97;4980750;28;20043;-84
2022/03/07 02:38:39;;;;;;;12.60;9.10;;;;;;;1.05;45.66;97058.94;4981282;28;20090;-85
2022/03/07 02:41:08;;;;;;;11.95;9.15;;;;;;;1.00;45.90;97063.56;4964813;28;20039;-84
2022/03/07 02:43:37;;;;;;;14.40;9.88;;;;;;;0.94;46.23;97064.00;4980708;28;20099;-85
2022/03/07 02:46:08;;;;;;;11.98;9.23;;;;;;;0.92;45.94;97059.00;4980811;28;20051;-85
2022/03/07 02:48:38;;;;;;;13.93;9.95;;;;;;;0.93;45.78;97072.66;4981240;28;20042;-84
2022/03/07 02:51:06;;;;;;;14.27;9.80;;;;;;;0.97;46.61;97062.03;4981015;28;20058;-84
2022/03/07 02:53:34;;;;;;;12.68;9.25;;;;;;;1.11;46.62;97061.03;4980885;28;20031;-83
2022/03/07 02:56:05;;;;;;;16.35;11.35;;;;;;;1.21;46.07;97067.16;4980244;28;20032;-85
2022/03/07 02:58:33;;;;;;;12.73;9.43;;;;;;;1.26;46.26;97066.00;4980885;28;20067;-84
2022/03/07 03:01:03;;;;;;;13.73;9.98;;;;;;;1.31;46.02;97062.19;4980764;28;20038;-85
2022/03/07 03:03:31;;;;;;;13.38;10.05;;;;;;;1.32;45.52;97063.81;4980205;28;20039;-84
2022/03/07 03:06:01;;;;;;;13.93;10.13;;;;;;;1.21;45.76;97064.59;4980051;28;20039;-86
2022/03/07 03:08:29;;;;;;;14.23;9.45;;;;;;;1.18;46.45;97056.28;4980433;28;20066;-84
2022/03/07 03:10:58;;;;;;;14.85;10.15;;;;;;;1.23;46.15;97061.91;4979877;28;20054;-84
2022/03/07 03:13:27;;;;;;;13.98;10.00;;;;;;;1.25;45.88;97062.63;4980504;28;20031;-84
2022/03/07 03:15:56;;;;;;;15.25;10.40;;;;;;;1.23;45.88;97067.88;4979707;28;20034;-84
2022/03/07 03:18:24;;;;;;;16.27;10.23;;;;;;;1.21;46.10;97059.44;4980252;28;20046;-84
2022/03/07 03:20:54;;;;;;;11.75;10.05;;;;;;;1.20;46.00;97057.81;4980183;28;20035;-85
2022/03/07 03:23:23;;;;;;;13.85;10.85;;;;;;;1.15;46.49;97059.88;4979831;28;20058;-84
2022/03/07 03:25:55;;;;;;;14.43;9.88;;;;;;;1.06;46.22;97068.28;4979338;28;20035;-84
2022/03/07 03:28:24;;;;;;;14.50;9.57;;;;;;;0.99;46.58;97062.75;4979799;28;20048;-85
2022/03/07 03:30:57;;;;;;;16.00;11.50;;;;;;;1.03;46.44;97068.50;4979637;28;20036;-84
2022/03/07 03:33:26;;;;;;;12.93;9.68;;;;;;;1.04;46.75;97077.84;4979462;28;20063;-84
2022/03/07 03:35:57;;;;;;;12.75;9.90;;;;;;;1.00;46.59;97072.09;4979573;28;20042;-85
2022/03/07 03:38:25;;;;;;;12.95;9.48;;;;;;;0.96;46.50;97070.69;4979810;28;20099;-84
2022/03/07 03:40:53;;;;;;;14.85;10.82;;;;;;;0.90;46.61;97075.47;4979933;28;20048;-85
2022/03/07 03:43:21;;;;;;;13.13;10.73;;;;;;;0.85;46.83;97080.09;4979240;28;20035;-86
2022/03/07 03:45:49;;;;;;;13.32;10.10;;;;;;;0.80;46.79;97070.94;4978914;28;20055;-86
2022/03/07 03:48:18;;;;;;;15.32;10.43;;;;;;;0.74;46.97;97073.13;4979430;28;20055;-87
2022/03/07 03:50:47;;;;;;;13.65;9.63;;;;;;;0.69;47.20;97070.91;4979543;28;20035;-85
2022/03/07 03:53:15;;;;;;;13.25;9.82;;;;;;;0.63;47.00;97071.31;4979518;28;20063;-85
2022/03/07 03:55:43;;;;;;;15.70;10.55;;;;;;;0.55;47.53;97066.75;4979611;28;20090;-84
2022/03/07 03:58:10;;;;;;;13.07;10.45;;;;;;;0.57;47.76;97066.66;4979524;28;20049;-87
2022/03/07 04:00:39;;;;;;;16.08;11.07;;;;;;;0.62;47.65;97072.28;4979516;28;20067;-86
2022/03/07 04:03:07;;;;;;;14.38;9.90;;;;;;;0.63;47.24;97076.47;4979174;28;20035;-84
2022/03/07 04:05:37;;;;;;;12.60;10.05;;;;;;;0.58;47.68;97071.66;4979407;28;20039;-84
2022/03/07 04:08:06;;;;;;;13.68;9.75;;;;;;;0.52;47.82;97076.41;4979360;28;20062;-86
2022/03/07 04:10:34;;;;;;;15.43;10.35;;;;;;;0.43;48.19;97066.78;4979891;28;20051;-87
2022/03/07 04:13:02;;;;;;;12.35;9.57;;;;;;;0.36;48.44;97058.69;4979203;28;20051;-84
2022/03/07 04:15:30;;;;;;;13.20;10.02;;;;;;;0.30;48.39;97065.06;4978586;28;20058;-83
2022/03/07 04:17:58;;;;;;;12.82;9.45;;;;;;;0.28;48.56;97060.97;4978566;28;20146;-84
2022/03/07 04:20:26;;;;;;;13.35;9.90;;;;;;;0.26;48.72;97066.19;4978680;28;20051;-85
2022/03/07 04:22:55;;;;;;;12.85;9.77;;;;;;;0.24;48.90;97068.06;4980539;28;20043;-85
2022/03/07 04:25:23;;;;;;;12.23;9.35;;;;;;;0.28;48.81;97073.78;4982730;28;20054;-84
2022/03/07 04:27:52;;;;;;;13.30;11.07;;;;;;;0.29;49.05;97071.13;4982057;29;20075;-86
2022/03/07 04:30:20;;;;;;;11.63;8.93;;;;;;;0.28;48.92;97069.47;4982828;28;20071;-84
2022/03/07 04:32:48;;;;;;;13.63;10.20;;;;;;;0.25;49.25;97074.81;4982155;28;20111;-87
2022/03/07 04:35:16;;;;;;;15.85;10.95;;;;;;;0.26;49.03;97073.88;4981875;28;20074;-85
2022/03/07 04:37:45;;;;;;;13.10;9.75;;;;;;;0.30;49.25;97071.94;4981567;29;20053;-86
2022/03/07 04:40:17;;;;;;;13.73;10.35;;;;;;;0.34;49.36;97076.75;4981416;29;20034;-87
2022/03/07 04:42:45;;;;;;;12.52;8.93;;;;;;;0.36;48.68;97077.47;4981810;28;20099;-86
2022/03/07 04:45:14;;;;;;;13.25;9.75;;;;;;;0.30;49.01;97077.88;4981879;28;20095;-84
2022/03/07 04:47:43;;;;;;;13.95;10.30;;;;;;;0.25;49.14;97079.16;4981838;28;20043;-86
2022/03/07 04:50:12;;;;;;;14.25;9.57;;;;;;;0.18;49.21;97083.88;4983087;28;20086;-87
2022/03/07 04:52:41;;;;;;;17.42;10.32;;;;;;;0.13;49.38;97081.63;4981902;28;20031;-86
2022/03/07 04:55:11;;;;;;;14.98;10.10;;;;;;;0.10;49.80;97076.69;4981221;28;20062;-87
2022/03/07 04:57:43;;;;;;;14.07;9.30;;;;;;;0.08;49.60;97081.09;4979771;29;20516;-85
2022/03/07 05:00:13;;;;;;;13.93;10.83;;;;;;;0.05;49.79;97076.19;4980128;28;20070;-84
2022/03/07 05:02:41;;;;;;;13.40;10.18;;;;;;;-0.01;49.65;97080.00;4980015;29;20281;-87
2022/03/07 05:05:09;;;;;;;13.20;10.57;;;;;;;-0.05;50.08;97083.69;4979379;29;20060;-87
2022/03/07 05:07:37;;;;;;;13.85;10.10;;;;;;;-0.09;50.21;97081.44;4977419;29;20137;-85
2022/03/07 05:10:06;;;;;;;15.30;10.65;;;;;;;-0.11;50.15;97083.28;4979005;29;20142;-87
2022/03/07 05:12:34;;;;;;;18.33;10.25;;;;;;;-0.10;50.05;97080.63;4977953;29;20059;-89
2022/03/07 05:15:04;;;;;;;13.45;9.93;;;;;;;-0.09;50.53;97091.69;4977271;29;20095;-85
2022/03/07 05:17:31;;;;;;;13.20;10.05;;;;;;;-0.11;50.40;97094.38;4978363;29;20044;-86
2022/03/07 05:19:59;;;;;;;14.75;9.75;;;;;;;-0.14;50.33;97094.56;4977985;29;20051;-86
2022/03/07 05:22:27;;;;;;;13.20;9.70;;;;;;;-0.17;50.35;97091.41;4977133;29;20061;-86
2022/03/07 05:24:55;;;;;;;17.23;11.75;;;;;;;-0.19;50.64;97101.75;4977012;29;20103;-87
2022/03/07 05:27:23;;;;;;;14.15;9.85;;;;;;;-0.24;50.84;97094.38;4976981;29;20067;-85
2022/03/07 05:29:50;;;;;;;13.52;9.60;;;;;;;-0.26;50.42;97096.22;4977192;29;20051;-84
2022/03/07 05:32:20;;;;;;;13.02;8.93;;;;;;;-0.28;50.94;97102.38;4978396;29;20043;-88
2022/03/07 05:34:48;;;;;;;13.98;9.50;;;;;;;-0.30;50.91;97114.47;4980028;28;20046;-86
2022/03/07 05:37:16;;;;;;;13.43;9.88;;;;;;;-0.31;51.14;97117.94;4979624;29;20106;-86
2022/03/07 05:39:44;;;;;;;15.57;10.27;;;;;;;-0.34;51.30;97115.59;4979808;28;20059;-85
2022/03/07 05:42:11;;;;;;;17.40;10.32;;;;;;;-0.37;51.35;97114.06;4981480;28;20057;-84
2022/03/07 05:44:40;;;;;;;13.18;10.27;;;;;;;-0.36;51.47;97109.75;4980171;28;20106;-84
2022/03/07 05:47:21;;;;;;;16.77;10.60;;;;;;;-0.36;51.97;97104.63;4974993;29;20118;-84
2022/03/07 05:49:49;;;;;;;13.50;9.55;;;;;;;-0.35;51.95;97112.22;4975357;29;20062;-85
2022/03/07 05:52:17;;;;;;;12.35;9.85;;;;;;;-0.35;51.88;97109.66;4976172;29;20081;-84
2022/03/07 05:54:44;;;;;;;13.93;10.63;;;;;;;-0.35;51.62;97117.34;4976176;29;20044;-86
2022/03/07 05:57:12;;;;;;;12.35;9.23;;;;;;;-0.35;52.03;97116.50;4974521;29;20063;-85
2022/03/07 05:59:40;;;;;;;14.45;10.35;;;;;;;-0.36;52.09;97112.31;4974736;29;20066;-85
2022/03/07 06:02:08;;;;;;;13.98;8.95;;;;;;;-0.37;52.80;97118.34;4975534;29;20043;-85
2022/03/07 06:04:38;;;;;;;13.65;9.80;;;;;;;-0.36;52.74;97118.25;4976338;29;20043;-85
2022/03/07 06:07:06;;;;;;;14.63;10.52;;;;;;;-0.34;52.50;97118.16;4974646;29;20061;-85
2022/03/07 06:09:33;;;;;;;14.80;10.27;;;;;;;-0.32;52.33;97124.00;4975036;29;20062;-85
2022/03/07 06:12:01;;;;;;;16.50;10.48;;;;;;;-0.31;52.45;97128.19;4968930;29;20051;-79
2022/03/07 06:14:29;;;;;;;13.38;9.75;;;;;;;-0.30;52.82;97122.97;4957726;29;20048;-78
2022/03/07 06:16:56;;;;;;;13.98;9.93;;;;;;;-0.27;52.88;97127.88;4956487;29;20063;-79
2022/03/07 06:19:24;;;;;;;14.48;10.45;;;;;;;-0.25;52.35;97130.34;4957456;29;20138;-79
2022/03/07 06:21:53;;;;;;;14.07;9.32;;;;;;;-0.23;52.87;97133.66;4957744;29;20422;-82
2022/03/07 06:24:20;;;;;;;13.82;9.73;;;;;;;-0.18;52.74;97133.34;4954809;29;20051;-80
2022/03/07 06:26:48;;;;;;;14.45;10.15;;;;;;;-0.16;52.83;97137.44;4956780;29;20047;-79
2022/03/07 06:29:19;;;;;;;14.68;10.55;;;;;;;-0.12;52.73;97126.06;4956728;29;20062;-79
2022/03/07 06:31:47;;;;;;;13.88;9.38;;;;;;;-0.09;52.87;97120.75;4956180;29;20054;-78
2022/03/07 06:34:14;;;;;;;14.80;10.27;;;;;;;-0.02;53.06;97123.72;4956002;29;20047;-79
2022/03/07 06:36:42;;;;;;;15.48;9.93;;;;;;;0.03;52.91;97120.84;4955659;29;20055;-79
2022/03/07 06:39:11;;;;;;;14.10;9.82;;;;;;;0.07;53.19;97141.03;4956053;29;20066;-79
2022/03/07 06:41:38;;;;;;;13.98;10.73;;;;;;;0.13;53.20;97138.06;4937385;29;20052;-80
2022/03/07 06:44:06;;;;;;;15.95;9.93;;;;;;;0.19;53.15;97141.94;4937530;29;20062;-78
2022/03/07 06:46:33;;;;;;;15.02;9.73;;;;;;;0.21;53.10;97145.25;4934926;29;20138;-79
2022/03/07 06:49:01;;;;;;;14.30;10.25;;;;;;;0.20;52.81;97144.41;4953121;29;20059;-78
2022/03/07 06:51:29;;;;;;;14.80;9.52;;;;;;;0.19;52.80;97141.94;4970178;29;20048;-80
2022/03/07 06:53:56;;;;;;;13.80;9.10;;;;;;;0.17;52.70;97148.94;4965588;29;20047;-80
2022/03/07 06:56:25;;;;;;;14.00;9.80;;;;;;;0.15;53.06;97145.66;4957637;29;20058;-79
2022/03/07 06:58:52;;;;;;;14.18;9.95;;;;;;;0.12;52.96;97141.53;4957911;29;20051;-80
2022/03/07 07:01:20;;;;;;;14.65;10.20;;;;;;;0.13;52.86;97144.94;4969269;29;20062;-81
2022/03/07 07:03:48;;;;;;;13.45;10.55;;;;;;;0.13;52.85;97142.34;4963795;29;20065;-80
2022/03/07 07:06:15;;;;;;;14.73;10.55;;;;;;;0.13;52.69;97145.78;4957400;29;20051;-81
2022/03/07 07:08:43;;;;;;;14.27;10.07;;;;;;;0.13;52.58;97143.19;4958702;29;20055;-80
2022/03/07 07:11:10;;;;;;;14.77;10.13;;;;;;;0.15;52.81;97143.06;4958471;29;20051;-80
2022/03/07 07:13:41;;;;;;;16.48;10.23;;;;;;;0.14;52.86;97139.69;4958240;29;20066;-82
2022/03/07 07:16:09;;;;;;;12.98;9.93;;;;;;;0.14;52.48;97144.00;4958974;29;20055;-80
2022/03/07 07:18:37;;;;;;;14.23;10.32;;;;;;;0.15;52.51;97149.06;4960348;29;20051;-80
2022/03/07 07:21:04;;;;;;;22.50;10.50;;;;;;;0.17;52.57;97154.06;4960086;29;20050;-79
2022/03/07 07:23:32;;;;;;;13.90;9.95;;;;;;;0.20;52.47;97154.69;4960134;29;20075;-80
2022/03/07 07:25:59;;;;;;;15.50;10.23;;;;;;;0.23;52.39;97148.53;4959660;29;20047;-79
2022/03/07 07:28:27;;;;;;;14.27;10.60;;;;;;;0.22;52.20;97151.19;4958332;29;20051;-81
2022/03/07 07:30:56;;;;;;;14.10;9.35;;;;;;;0.19;52.35;97152.22;4959874;29;20054;-80
2022/03/07 07:40:01;;;;;;;14.00;10.13;;;;;;;0.20;52.01;97169.25;5245759;23;20323;-81
2022/03/07 07:42:33;;;;;;;14.02;9.88;;;;;;;0.20;52.03;97166.69;4973979;29;20063;-81
2022/03/07 07:45:02;;;;;;;14.98;10.05;;;;;;;0.26;52.09;97163.69;4971110;29;20078;-82
2022/03/07 07:53:48;;;;;;;15.13;10.35;;;;;;;0.79;51.76;97182.31;6003477;23;20373;-81
2022/03/07 08:07:44;;;;;;;14.13;9.25;;;;;;;2.22;47.83;97207.22;4957443;29;20091;-81
2022/03/07 08:10:45;;;;;;;13.35;10.05;;;;;;;2.36;47.35;97195.88;4954285;29;20135;-82
2022/03/07 08:28:00;;;;;;;12.30;8.77;;;;;;;3.40;44.92;97203.28;5322295;23;20086;-83
2022/03/07 08:30:44;;;;;;;11.57;9.30;;;;;;;3.63;44.53;97206.59;4973024;29;20422;-82
2022/03/07 08:36:39;;;;;;;11.90;7.95;;;;;;;4.18;42.78;97208.22;4969622;29;20047;-82
2022/03/07 08:43:54;;;;;;;12.20;7.95;;;;;;;4.83;41.61;97206.19;4973387;29;20115;-83
2022/03/07 08:51:08;;;;;;;8.43;6.97;;;;;;;5.55;39.37;97221.50;4967563;29;20071;-81
2022/03/07 09:13:29;;;;;;;9.32;7.55;;;;;;;7.29;35.83;97228.19;6013231;23;20068;-82
2022/03/07 09:30:06;;;;;;;8.17;7.37;;;;;;;8.71;32.33;97239.47;5559992;23;20055;-76
2022/03/07 09:32:33;;;;;;;9.48;7.47;;;;;;;8.95;32.36;97233.59;4956770;29;20058;-76
2022/03/07 09:35:01;;;;;;;8.32;7.47;;;;;;;9.33;31.52;97247.06;4958214;29;20051;-76
2022/03/07 09:37:29;;;;;;;8.95;7.68;;;;;;;9.68;30.92;97250.41;4958175;29;20047;-78
2022/03/07 09:39:57;;;;;;;9.63;7.70;;;;;;;10.02;29.90;97252.91;4977812;29;20042;-77
2022/03/07 09:42:24;;;;;;;8.30;7.50;;;;;;;10.31;29.23;97260.25;4975372;28;20073;-77
2022/03/07 09:44:54;;;;;;;8.10;7.05;;;;;;;10.53;28.57;97257.97;4953941;29;20047;-76
2022/03/07 09:47:23;;;;;;;8.10;7.30;;;;;;;10.68;27.64;97260.72;4938160;29;20071;-76
2022/03/07 09:49:52;;;;;;;9.23;8.20;;;;;;;10.87;27.36;97267.38;4953961;29;20047;-77
2022/03/07 09:52:20;;;;;;;8.52;7.47;;;;;;;11.12;27.09;97263.69;4955031;28;20067;-76
2022/03/07 09:54:47;;;;;;;8.93;7.95;;;;;;;11.40;26.36;97258.03;4944282;29;20039;-77
2022/03/07 09:57:15;;;;;;;9.15;7.93;;;;;;;11.69;26.12;97260.00;4960508;29;20058;-77
2022/03/07 09:59:42;;;;;;;10.88;8.02;;;;;;;11.98;25.59;97260.34;4955684;29;20063;-76
2022/03/07 10:02:13;;;;;;;8.93;7.78;;;;;;;12.25;25.12;97266.88;4955904;29;20055;-77
2022/03/07 10:04:45;;;;;;;10.75;8.10;;;;;;;12.48;24.21;97261.59;4955893;29;20589;-77
2022/03/07 10:07:13;;;;;;;10.93;8.02;;;;;;;12.52;24.27;97263.66;4955189;29;20051;-76
2022/03/07 10:09:41;;;;;;;10.43;9.35;;;;;;;12.45;24.23;97261.97;4956043;29;20055;-76
2022/03/07 10:12:09;;;;;;;9.43;8.50;;;;;;;12.16;24.20;97253.84;4955146;29;20079;-76
2022/03/07 10:14:42;;;;;;;9.50;8.50;;;;;;;12.33;23.90;97259.75;4955811;29;20051;-76
2022/03/07 10:17:21;;;;;;;9.07;8.20;;;;;;;13.16;22.75;97244.84;4952982;29;20482;-76
2022/03/07 10:19:50;;;;;;;10.40;8.00;;;;;;;13.91;22.39;97266.50;4953695;28;20051;-76
2022/03/07 10:22:21;;;;;;;8.63;7.57;;;;;;;14.60;21.89;97262.47;4975049;28;20047;-76
2022/03/07 10:24:58;;;;;;;9.77;8.77;;;;;;;15.60;20.44;97269.09;4937698;29;20506;-76
2022/03/07 10:27:27;;;;;;;12.32;8.10;;;;;;;16.52;19.93;97252.88;4942528;29;20044;-76
2022/03/07 10:29:54;;;;;;;9.35;8.27;;;;;;;17.39;19.41;97246.44;4955392;29;20055;-78
2022/03/07 10:32:22;;;;;;;9.20;8.23;;;;;;;17.18;18.84;97257.25;4955315;29;20055;-76
2022/03/07 10:34:51;;;;;;;9.07;8.18;;;;;;;16.81;19.06;97249.03;4955209;29;20502;-76
2022/03/07 10:37:19;;;;;;;9.82;8.82;;;;;;;17.60;18.74;97247.16;4950287;29;20422;-74
2022/03/07 10:39:48;;;;;;;10.45;8.20;;;;;;;18.70;17.63;97258.22;4965825;28;20090;-75
2022/03/07 10:42:16;;;;;;;8.70;7.82;;;;;;;19.49;17.04;97254.97;4973550;28;20062;-77
2022/03/07 10:44:44;;;;;;;9.15;7.97;;;;;;;20.16;16.70;97255.72;4973279;28;20078;-77
2022/03/07 10:47:14;;;;;;;8.25;7.45;;;;;;;20.62;15.77;97253.41;4974089;28;20051;-78
2022/03/07 10:49:54;;;;;;;8.32;7.53;;;;;;;20.89;14.79;97269.66;4974325;28;20055;-77
2022/03/07 10:52:22;;;;;;;9.02;8.23;;;;;;;20.71;15.21;97261.81;4947994;28;20048;-77
2022/03/07 10:54:51;;;;;;;9.35;8.35;;;;;;;20.06;15.50;97259.94;4954309;28;20081;-76
2022/03/07 10:57:21;;;;;;;13.13;8.40;;;;;;;19.03;15.66;97258.94;4967912;28;20560;-76
2022/03/07 10:59:49;;;;;;;9.85;8.23;;;;;;;17.46;17.48;97257.75;4935915;29;20052;-77
2022/03/07 11:02:19;;;;;;;8.70;7.80;;;;;;;17.28;17.33;97261.06;4944887;29;20052;-82
2022/03/07 11:18:07;;;;;;;9.82;8.52;;;;;;;15.21;19.24;97259.22;5532517;23;20073;-80
2022/03/07 11:51:10;;;;;;;12.13;10.15;;;;;;;11.68;22.43;97223.59;5288184;23;20050;-79
2022/03/07 13:33:42;;;;;;;12.45;10.60;;;;;;;6.23;29.35;97142.13;5587451;23;20062;-83
2022/03/07 13:36:11;;;;;;;14.80;10.52;;;;;;;6.15;29.65;97135.88;4960583;29;20078;-82
2022/03/07 13:38:38;;;;;;;12.20;10.68;;;;;;;6.12;29.95;97128.41;4961443;29;20055;-85
2022/03/07 13:41:07;;;;;;;12.38;10.65;;;;;;;6.15;30.08;97125.53;4961265;29;20051;-84
2022/03/07 13:43:37;;;;;;;15.82;10.50;;;;;;;6.21;29.64;97128.50;4960507;29;20055;-89
2022/03/07 13:46:14;;;;;;;12.23;10.82;;;;;;;6.24;30.02;97120.47;4960946;29;20059;-81
2022/03/07 13:48:44;;;;;;;13.43;10.85;;;;;;;6.25;29.67;97124.66;4961121;29;20070;-87
2022/03/07 13:51:12;;;;;;;14.55;11.68;;;;;;;6.23;29.89;97119.66;4960788;29;20055;-81
2022/03/07 13:53:40;;;;;;;12.98;10.25;;;;;;;6.18;30.01;97121.81;4959884;28;20115;-86
2022/03/07 13:56:09;;;;;;;13.88;10.57;;;;;;;6.17;30.14;97109.84;4960079;29;20098;-82
2022/03/07 13:58:38;;;;;;;13.63;10.65;;;;;;;6.16;29.86;97121.97;4960042;29;20501;-85
2022/03/07 14:01:08;;;;;;;11.43;10.23;;;;;;;6.09;29.77;97117.50;4963394;29;20054;-84
2022/03/07 14:03:57;;;;;;;14.68;10.77;;;;;;;5.97;29.79;97124.63;4964423;29;20113;-85
2022/03/07 14:06:28;;;;;;;13.07;11.07;;;;;;;5.94;29.77;97124.84;4963398;29;20146;-81
2022/03/07 14:08:57;;;;;;;12.35;10.60;;;;;;;5.91;29.93;97114.78;4962552;29;20128;-84
2022/03/07 14:11:29;;;;;;;12.60;10.80;;;;;;;5.91;30.00;97114.78;4961884;29;20047;-87
2022/03/07 14:13:58;;;;;;;14.15;11.52;;;;;;;5.82;29.61;97123.41;4961920;29;20051;-88
2022/03/07 14:16:36;;;;;;;13.00;10.45;;;;;;;5.70;30.34;97115.75;4960396;29;20055;-82
2022/03/07 14:19:07;;;;;;;15.07;11.98;;;;;;;5.68;30.20;97109.91;4951979;29;20066;-82
2022/03/07 14:21:37;;;;;;;15.45;11.68;;;;;;;5.67;30.32;97113.47;4964914;28;20081;-82
2022/03/07 14:24:06;;;;;;;14.40;11.20;;;;;;;5.67;30.51;97110.88;4956183;28;20576;-82
2022/03/07 14:26:34;;;;;;;25.85;11.93;;;;;;;5.68;30.32;97117.66;4955609;29;20051;-84
2022/03/07 14:29:06;;;;;;;12.75;11.45;;;;;;;5.72;30.51;97108.69;4946827;29;20135;-80
2022/03/07 14:31:35;;;;;;;14.30;11.30;;;;;;;5.74;30.21;97114.53;4948900;29;20119;-83
2022/03/07 14:34:10;;;;;;;13.32;10.95;;;;;;;5.76;30.24;97107.44;4953057;29;20115;-90
2022/03/07 14:36:44;;;;;;;12.70;10.95;;;;;;;5.78;30.81;97110.72;4944190;29;20058;-91
2022/03/07 14:39:12;;;;;;;14.50;11.90;;;;;;;5.83;30.37;97104.31;4944460;29;20051;-81
2022/03/07 14:41:45;;;;;;;15.07;12.02;;;;;;;5.83;30.60;97114.66;4944192;29;20099;-88
2022/03/07 14:44:35;;;;;;;17.20;11.50;;;;;;;5.80;30.21;97115.75;4947599;29;20532;-90
2022/03/07 14:47:09;;;;;;;14.15;11.57;;;;;;;5.76;30.13;97115.22;4958516;29;20047;-90
2022/03/07 14:49:39;;;;;;;14.32;11.95;;;;;;;5.73;30.57;97114.69;4964062;29;20062;-88
2022/03/07 14:52:11;;;;;;;15.07;11.75;;;;;;;5.73;30.89;97112.09;4962351;29;20058;-86
2022/03/07 14:54:40;;;;;;;22.10;13.52;;;;;;;5.75;30.63;97123.09;4962479;29;20065;-87
2022/03/07 14:57:10;;;;;;;18.60;12.32;;;;;;;5.74;30.88;97124.88;4961367;29;20484;-84
2022/03/07 14:59:40;;;;;;;16.48;12.32;;;;;;;5.65;30.91;97127.50;4960001;29;20134;-88
2022/03/07 15:02:12;;;;;;;17.63;12.95;;;;;;;5.51;30.82;97126.97;4950937;29;20074;-89
2022/03/07 15:04:45;;;;;;;16.60;11.73;;;;;;;5.40;30.93;97124.53;4961294;29;20065;-89
2022/03/07 15:07:24;;;;;;;14.85;12.32;;;;;;;5.37;31.15;97128.19;4960803;28;20075;-89
2022/03/07 15:09:53;;;;;;;16.67;12.38;;;;;;;5.37;31.23;97120.41;4956779;29;20528;-87
2022/03/07 15:12:23;;;;;;;17.90;12.70;;;;;;;5.35;31.45;97124.91;4962814;29;20065;-86
2022/03/07 15:14:53;;;;;;;14.20;12.02;;;;;;;5.32;31.26;97117.44;4948417;28;20051;-84
2022/03/07 15:17:30;;;;;;;15.55;12.20;;;;;;;5.32;31.46;97122.59;4973815;28;20111;-83
2022/03/07 15:20:06;;;;;;;18.15;12.55;;;;;;;5.31;31.21;97123.56;4943300;29;20055;-84
2022/03/07 15:22:41;;;;;;;15.25;12.07;;;;;;;5.31;31.47;97130.50;4946415;29;20062;-88
2022/03/07 15:25:16;;;;;;;20.63;13.20;;;;;;;5.27;31.42;97124.78;4966437;29;20075;-90
2022/03/07 15:27:45;;;;;;;16.90;13.65;;;;;;;5.28;31.52;97133.34;4964001;29;20537;-90
2022/03/07 15:30:15;;;;;;;15.73;12.52;;;;;;;5.27;31.55;97131.72;4952518;29;20062;-88
2022/03/07 15:32:45;;;;;;;18.77;13.57;;;;;;;5.23;31.42;97128.59;4943250;29;20490;-89
2022/03/07 15:35:21;;;;;;;16.70;13.52;;;;;;;5.19;31.76;97131.59;4955148;29;20114;-89
2022/03/07 15:37:54;;;;;;;18.15;13.98;;;;;;;5.11;31.76;97122.72;4962304;29;20066;-87
2022/03/07 15:40:26;;;;;;;18.80;13.70;;;;;;;5.06;31.89;97132.66;4962575;29;20058;-89
2022/03/07 15:42:55;;;;;;;23.38;13.45;;;;;;;5.00;31.70;97114.28;4966751;29;20116;-91
2022/03/07 15:45:27;;;;;;;19.33;13.90;;;;;;;4.93;31.68;97111.41;4960976;29;20055;-87
2022/03/07 15:47:56;;;;;;;15.85;12.80;;;;;;;4.92;31.77;97105.44;4963215;29;20051;-88
2022/03/07 15:50:26;;;;;;;15.13;11.90;;;;;;;4.92;31.67;97097.66;4961147;29;20102;-82
2022/03/07 15:53:01;;;;;;;16.23;13.13;;;;;;;4.92;31.81;97097.66;4962023;29;20053;-90
2022/03/07 15:55:29;;;;;;;17.27;13.60;;;;;;;4.88;31.63;97093.72;4962732;29;20070;-85
2022/03/07 15:57:58;;;;;;;18.38;13.55;;;;;;;4.83;31.90;97093.31;4945777;29;20059;-84
2022/03/07 16:00:31;;;;;;;17.80;13.70;;;;;;;4.81;31.95;97110.72;4957385;29;20103;-90
2022/03/07 16:02:59;;;;;;;17.38;12.32;;;;;;;4.77;31.69;97104.19;4977372;28;20035;-87
2022/03/07 16:05:29;;;;;;;16.80;13.10;;;;;;;4.74;31.70;97107.00;4978693;28;20070;-89
2022/03/07 16:07:58;;;;;;;18.17;13.40;;;;;;;4.71;32.08;97112.44;4978582;28;20035;-91
2022/03/07 16:10:30;;;;;;;15.70;13.15;;;;;;;4.68;31.97;97110.13;4978759;28;20051;-90
2022/03/07 16:12:58;;;;;;;16.40;13.07;;;;;;;4.66;32.10;97109.47;4959569;29;20050;-88
2022/03/07 16:15:30;;;;;;;15.23;12.48;;;;;;;4.63;32.17;97109.69;4959913;29;20118;-89
2022/03/07 16:17:58;;;;;;;17.90;13.43;;;;;;;4.60;32.17;97109.97;4963077;29;20039;-87
2022/03/07 16:20:27;;;;;;;18.63;13.35;;;;;;;4.54;32.10;97117.28;4966452;29;20028;-89
2022/03/07 16:22:59;;;;;;;15.57;12.73;;;;;;;4.51;32.11;97114.16;4985285;28;20066;-90
2022/03/07 16:25:28;;;;;;;17.67;13.27;;;;;;;4.48;31.99;97117.00;4975467;28;20046;-90
2022/03/07 16:27:56;;;;;;;17.58;13.02;;;;;;;4.42;32.25;97123.53;4965953;29;20036;-90
2022/03/07 16:30:27;;;;;;;16.02;12.50;;;;;;;4.37;31.98;97124.84;4966102;29;20036;-90
2022/03/07 16:35:41;;;;;;;19.17;13.52;;;;;;;4.32;32.34;97128.63;4985535;28;20098;-90
2022/03/07 16:38:15;;;;;;;19.33;13.07;;;;;;;4.32;32.36;97133.78;4983728;28;20035;-91
2022/03/07 16:40:50;;;;;;;19.00;14.02;;;;;;;4.31;32.44;97126.19;4985517;28;20051;-91
2022/03/07 18:19:47;;;;;;;21.08;14.38;;;;;;;2.66;36.26;97218.50;1097909;23;20328;-90
2022/03/07 18:22:35;;;;;;;26.05;13.27;;;;;;;2.57;36.33;97219.19;4969746;28;20060;-87
2022/03/07 18:25:13;;;;;;;19.25;13.68;;;;;;;2.47;36.36;97214.75;4942274;29;20052;-88
2022/03/07 18:27:45;;;;;;;20.10;14.05;;;;;;;2.42;36.52;97227.13;4947792;29;20071;-85
2022/03/07 18:30:20;;;;;;;19.83;14.57;;;;;;;2.37;36.75;97234.38;4960897;29;20052;-86
2022/03/07 18:32:55;;;;;;;17.45;12.35;;;;;;;2.33;36.54;97235.56;4959928;29;20049;-85
2022/03/07 18:35:30;;;;;;;19.08;13.77;;;;;;;2.30;36.52;97234.97;4960941;29;20054;-88
2022/03/07 18:38:04;;;;;;;19.40;14.90;;;;;;;2.28;36.84;97239.44;4960419;29;20040;-88
2022/03/07 18:40:36;;;;;;;25.25;13.52;;;;;;;2.25;36.80;97243.03;4959683;29;20058;-88